sensor_id;sensor_type;location;lat;lon;timestamp;pressure;altitude;pressure_sealevel;temperature;humidity
75697;BME280;64312;44.738;20.612;2022-12-11T00:02:27;98018.22;;;4.87;94.27
75697;BME280;64312;44.738;20.612;2022-12-11T00:04:53;98021.50;;;4.89;94.11
75697;BME280;64312;44.738;20.612;2022-12-11T00:07:19;98030.31;;;4.90;94.28
75697;BME280;64312;44.738;20.612;2022-12-11T00:09:45;98043.03;;;4.88;94.84
75697;BME280;64312;44.738;20.612;2022-12-11T00:12:10;98048.19;;;4.76;94.14
75697;BME280;64312;44.738;20.612;2022-12-11T00:14:36;98064.59;;;4.80;94.15
75697;BME280;64312;44.738;20.612;2022-12-11T00:17:02;98036.56;;;4.71;94.59
75697;BME280;64312;44.738;20.612;2022-12-11T00:19:28;98057.03;;;4.63;94.58
75697;BME280;64312;44.738;20.612;2022-12-11T00:21:54;98073.69;;;4.52;94.63
75697;BME280;64312;44.738;20.612;2022-12-11T00:24:20;98076.97;;;4.48;94.74
75697;BME280;64312;44.738;20.612;2022-12-11T00:26:46;98062.44;;;4.37;94.40
75697;BME280;64312;44.738;20.612;2022-12-11T00:29:13;98070.25;;;4.39;94.66
75697;BME280;64312;44.738;20.612;2022-12-11T00:31:40;98089.69;;;4.46;94.80
75697;BME280;64312;44.738;20.612;2022-12-11T00:34:06;98096.22;;;4.50;94.95
75697;BME280;64312;44.738;20.612;2022-12-11T00:36:32;98140.09;;;4.41;95.22
75697;BME280;64312;44.738;20.612;2022-12-11T00:39:00;98115.31;;;4.33;94.65
75697;BME280;64312;44.738;20.612;2022-12-11T00:41:26;98099.94;;;4.29;94.57
75697;BME280;64312;44.738;20.612;2022-12-11T00:43:52;98113.69;;;4.19;94.81
75697;BME280;64312;44.738;20.612;2022-12-11T00:46:18;98106.09;;;4.16;94.98
75697;BME280;64312;44.738;20.612;2022-12-11T00:48:44;98118.00;;;4.14;94.61
75697;BME280;64312;44.738;20.612;2022-12-11T00:51:11;98117.16;;;4.13;94.62
75697;BME280;64312;44.738;20.612;2022-12-11T00:53:37;98121.69;;;4.13;95.13
75697;BME280;64312;44.738;20.612;2022-12-11T00:56:12;98166.09;;;4.12;95.55
75697;BME280;64312;44.738;20.612;2022-12-11T00:58:38;98126.78;;;4.07;94.94
75697;BME280;64312;44.738;20.612;2022-12-11T01:01:15;98142.97;;;3.99;94.93
75697;BME280;64312;44.738;20.612;2022-12-11T01:03:41;98128.81;;;3.99;95.25
75697;BME280;64312;44.738;20.612;2022-12-11T01:06:12;98113.69;;;4.06;95.25
75697;BME280;64312;44.738;20.612;2022-12-11T01:08:38;98121.25;;;4.02;94.73
75697;BME280;64312;44.738;20.612;2022-12-11T01:11:07;98111.84;;;4.00;95.90
75697;BME280;64312;44.738;20.612;2022-12-11T01:13:33;98104.66;;;3.94;95.57
75697;BME280;64312;44.738;20.612;2022-12-11T01:15:58;98118.38;;;3.97;95.17
75697;BME280;64312;44.738;20.612;2022-12-11T01:18:24;98112.44;;;3.95;95.59
75697;BME280;64312;44.738;20.612;2022-12-11T01:20:50;98107.94;;;3.89;95.31
75697;BME280;64312;44.738;20.612;2022-12-11T01:23:16;98122.66;;;3.92;95.50
75697;BME280;64312;44.738;20.612;2022-12-11T01:25:42;98143.16;;;3.91;95.55
75697;BME280;64312;44.738;20.612;2022-12-11T01:28:08;98139.88;;;3.96;95.49
75697;BME280;64312;44.738;20.612;2022-12-11T01:30:34;98144.78;;;3.86;95.30
75697;BME280;64312;44.738;20.612;2022-12-11T01:33:00;98166.88;;;3.93;95.96
75697;BME280;64312;44.738;20.612;2022-12-11T01:35:27;98162.22;;;3.95;95.30
75697;BME280;64312;44.738;20.612;2022-12-11T01:37:52;98182.06;;;3.99;95.69
75697;BME280;64312;44.738;20.612;2022-12-11T01:40:19;98188.41;;;3.98;95.38
75697;BME280;64312;44.738;20.612;2022-12-11T01:42:45;98189.44;;;3.97;95.64
75697;BME280;64312;44.738;20.612;2022-12-11T01:47:47;98195.19;;;3.94;95.46
75697;BME280;64312;44.738;20.612;2022-12-11T01:50:14;98209.28;;;3.88;95.35
75697;BME280;64312;44.738;20.612;2022-12-11T01:52:42;98211.13;;;3.87;95.39
75697;BME280;64312;44.738;20.612;2022-12-11T01:55:08;98207.44;;;3.82;95.66
75697;BME280;64312;44.738;20.612;2022-12-11T01:57:39;98211.13;;;3.80;95.39
75697;BME280;64312;44.738;20.612;2022-12-11T02:00:08;98210.66;;;3.70;95.75
75697;BME280;64312;44.738;20.612;2022-12-11T02:02:38;98238.50;;;3.68;94.92
75697;BME280;64312;44.738;20.612;2022-12-11T02:05:05;98218.00;;;3.62;95.69
75697;BME280;64312;44.738;20.612;2022-12-11T02:07:36;98229.03;;;3.59;95.88
75697;BME280;64312;44.738;20.612;2022-12-11T02:10:03;98250.75;;;3.62;95.91
75697;BME280;64312;44.738;20.612;2022-12-11T02:15:30;98263.75;;;3.44;95.56
75697;BME280;64312;44.738;20.612;2022-12-11T02:20:41;98319.31;;;3.32;95.18
75697;BME280;64312;44.738;20.612;2022-12-11T02:28:30;98278.94;;;3.22;95.12
75697;BME280;64312;44.738;20.612;2022-12-11T02:31:11;98293.88;;;3.16;95.46
75697;BME280;64312;44.738;20.612;2022-12-11T02:36:26;98319.50;;;3.03;95.58
75697;BME280;64312;44.738;20.612;2022-12-11T02:38:55;98316.22;;;3.01;95.49
75697;BME280;64312;44.738;20.612;2022-12-11T02:41:23;98316.22;;;3.01;95.63
75697;BME280;64312;44.738;20.612;2022-12-11T02:43:51;98329.53;;;3.01;95.25
75697;BME280;64312;44.738;20.612;2022-12-11T02:46:20;98342.88;;;3.07;95.63
75697;BME280;64312;44.738;20.612;2022-12-11T02:48:49;98353.13;;;3.10;95.33
75697;BME280;64312;44.738;20.612;2022-12-11T02:51:25;98341.91;;;3.15;95.08
75697;BME280;64312;44.738;20.612;2022-12-11T02:53:56;98352.72;;;3.13;96.11
75697;BME280;64312;44.738;20.612;2022-12-11T02:56:28;98376.84;;;3.12;95.17
75697;BME280;64312;44.738;20.612;2022-12-11T02:58:59;98355.94;;;3.09;95.76
75697;BME280;64312;44.738;20.612;2022-12-11T03:01:26;98368.56;;;3.00;95.20
75697;BME280;64312;44.738;20.612;2022-12-11T03:03:53;98374.09;;;2.98;95.38
75697;BME280;64312;44.738;20.612;2022-12-11T03:06:22;98401.84;;;2.96;95.32
75697;BME280;64312;44.738;20.612;2022-12-11T03:08:49;98400.81;;;2.90;95.54
75697;BME280;64312;44.738;20.612;2022-12-11T03:11:16;98428.75;;;2.86;95.52
75697;BME280;64312;44.738;20.612;2022-12-11T03:13:42;98409.47;;;2.78;94.78
75697;BME280;64312;44.738;20.612;2022-12-11T03:16:23;98406.16;;;2.76;95.47
75697;BME280;64312;44.738;20.612;2022-12-11T03:21:52;98439.59;;;2.70;95.16
75697;BME280;64312;44.738;20.612;2022-12-11T03:24:25;98414.19;;;2.61;95.43
75697;BME280;64312;44.738;20.612;2022-12-11T03:27:02;98430.13;;;2.61;95.08
75697;BME280;64312;44.738;20.612;2022-12-11T03:29:35;98422.34;;;2.59;95.46
75697;BME280;64312;44.738;20.612;2022-12-11T03:32:07;98422.69;;;2.56;95.29
75697;BME280;64312;44.738;20.612;2022-12-11T03:34:56;98418.53;;;2.47;94.50
75697;BME280;64312;44.738;20.612;2022-12-11T03:37:27;98429.50;;;2.44;94.68
75697;BME280;64312;44.738;20.612;2022-12-11T03:39:57;98418.63;;;2.39;95.36
75697;BME280;64312;44.738;20.612;2022-12-11T03:42:25;98437.84;;;2.41;95.18
75697;BME280;64312;44.738;20.612;2022-12-11T03:44:53;98452.97;;;2.40;95.46
75697;BME280;64312;44.738;20.612;2022-12-11T03:47:23;98446.00;;;2.39;95.25
75697;BME280;64312;44.738;20.612;2022-12-11T03:49:51;98460.66;;;2.35;95.00
75697;BME280;64312;44.738;20.612;2022-12-11T03:52:19;98442.63;;;2.31;95.74
75697;BME280;64312;44.738;20.612;2022-12-11T03:54:46;98461.88;;;2.33;95.38
75697;BME280;64312;44.738;20.612;2022-12-11T03:57:15;98461.19;;;2.31;95.79
75697;BME280;64312;44.738;20.612;2022-12-11T03:59:42;98475.69;;;2.28;95.64
75697;BME280;64312;44.738;20.612;2022-12-11T04:02:08;98472.84;;;2.30;95.65
75697;BME280;64312;44.738;20.612;2022-12-11T04:04:39;98462.41;;;2.28;95.47
75697;BME280;64312;44.738;20.612;2022-12-11T04:07:06;98483.66;;;2.28;95.59
75697;BME280;64312;44.738;20.612;2022-12-11T04:09:32;98487.50;;;2.26;95.31
75697;BME280;64312;44.738;20.612;2022-12-11T04:11:58;98516.44;;;2.21;95.48
75697;BME280;64312;44.738;20.612;2022-12-11T04:14:23;98511.13;;;2.21;95.09
75697;BME280;64312;44.738;20.612;2022-12-11T04:17:08;98539.50;;;2.20;95.52
75697;BME280;64312;44.738;20.612;2022-12-11T04:19:34;98528.22;;;2.18;96.01
75697;BME280;64312;44.738;20.612;2022-12-11T04:22:18;98524.09;;;2.15;95.69
75697;BME280;64312;44.738;20.612;2022-12-11T04:25:04;98535.06;;;2.12;95.74
75697;BME280;64312;44.738;20.612;2022-12-11T04:27:31;98525.13;;;2.14;95.31
75697;BME280;64312;44.738;20.612;2022-12-11T04:30:26;98542.06;;;2.13;95.08
75697;BME280;64312;44.738;20.612;2022-12-11T04:32:53;98554.50;;;2.13;95.00
75697;BME280;64312;44.738;20.612;2022-12-11T04:35:19;98557.78;;;2.15;95.82
75697;BME280;64312;44.738;20.612;2022-12-11T04:37:45;98577.19;;;2.15;95.32
75697;BME280;64312;44.738;20.612;2022-12-11T04:40:15;98599.16;;;2.09;95.22
75697;BME280;64312;44.738;20.612;2022-12-11T04:42:42;98578.28;;;2.06;95.08
75697;BME280;64312;44.738;20.612;2022-12-11T04:45:08;98582.75;;;2.06;95.25
75697;BME280;64312;44.738;20.612;2022-12-11T04:47:36;98592.28;;;2.00;95.18
75697;BME280;64312;44.738;20.612;2022-12-11T04:50:04;98614.78;;;2.04;95.17
75697;BME280;64312;44.738;20.612;2022-12-11T04:52:30;98605.19;;;2.03;95.11
75697;BME280;64312;44.738;20.612;2022-12-11T04:54:55;98619.47;;;2.02;95.82
75697;BME280;64312;44.738;20.612;2022-12-11T04:57:21;98615.78;;;2.03;95.32
75697;BME280;64312;44.738;20.612;2022-12-11T04:59:47;98632.19;;;2.07;95.98
75697;BME280;64312;44.738;20.612;2022-12-11T05:02:14;98655.06;;;2.08;95.36
75697;BME280;64312;44.738;20.612;2022-12-11T05:04:40;98638.22;;;2.01;94.94
75697;BME280;64312;44.738;20.612;2022-12-11T05:07:05;98643.22;;;1.96;94.96
75697;BME280;64312;44.738;20.612;2022-12-11T05:09:31;98635.78;;;1.91;95.37
75697;BME280;64312;44.738;20.612;2022-12-11T05:11:57;98642.41;;;1.95;95.25
75697;BME280;64312;44.738;20.612;2022-12-11T05:14:22;98638.25;;;1.93;95.44
75697;BME280;64312;44.738;20.612;2022-12-11T05:16:48;98642.22;;;1.97;95.08
75697;BME280;64312;44.738;20.612;2022-12-11T05:19:15;98650.00;;;1.98;95.58
75697;BME280;64312;44.738;20.612;2022-12-11T05:21:41;98640.22;;;1.99;95.06
75697;BME280;64312;44.738;20.612;2022-12-11T05:24:07;98661.69;;;1.89;95.01
75697;BME280;64312;44.738;20.612;2022-12-11T05:26:32;98644.34;;;1.78;94.66
75697;BME280;64312;44.738;20.612;2022-12-11T05:28:58;98653.31;;;1.77;95.10
75697;BME280;64312;44.738;20.612;2022-12-11T05:31:25;98650.16;;;1.74;94.91
75697;BME280;64312;44.738;20.612;2022-12-11T05:33:52;98641.38;;;1.73;95.57
75697;BME280;64312;44.738;20.612;2022-12-11T05:38:46;98638.91;;;1.72;95.46
75697;BME280;64312;44.738;20.612;2022-12-11T05:41:14;98668.41;;;1.77;95.56
75697;BME280;64312;44.738;20.612;2022-12-11T05:43:40;98662.78;;;1.72;95.38
75697;BME280;64312;44.738;20.612;2022-12-11T05:46:17;98679.34;;;1.74;95.34
75697;BME280;64312;44.738;20.612;2022-12-11T05:48:45;98676.06;;;1.72;95.43
75697;BME280;64312;44.738;20.612;2022-12-11T05:51:12;98680.53;;;1.71;95.41
75697;BME280;64312;44.738;20.612;2022-12-11T05:53:38;98678.72;;;1.72;95.66
75697;BME280;64312;44.738;20.612;2022-12-11T05:56:10;98691.50;;;1.68;95.61
75697;BME280;64312;44.738;20.612;2022-12-11T05:58:37;98680.09;;;1.68;95.28
75697;BME280;64312;44.738;20.612;2022-12-11T06:01:10;98696.16;;;1.66;95.95
75697;BME280;64312;44.738;20.612;2022-12-11T06:03:37;98682.25;;;1.64;95.53
75697;BME280;64312;44.738;20.612;2022-12-11T06:06:06;98709.78;;;1.63;95.83
75697;BME280;64312;44.738;20.612;2022-12-11T06:08:32;98691.38;;;1.61;95.34
75697;BME280;64312;44.738;20.612;2022-12-11T06:10:58;98694.38;;;1.58;95.56
75697;BME280;64312;44.738;20.612;2022-12-11T06:13:25;98726.03;;;1.60;95.27
75697;BME280;64312;44.738;20.612;2022-12-11T06:15:50;98736.34;;;1.55;95.16
75697;BME280;64312;44.738;20.612;2022-12-11T06:18:16;98708.16;;;1.54;95.40
75697;BME280;64312;44.738;20.612;2022-12-11T06:20:42;98717.09;;;1.53;95.19
75697;BME280;64312;44.738;20.612;2022-12-11T06:23:07;98721.59;;;1.52;95.25
75697;BME280;64312;44.738;20.612;2022-12-11T06:25:33;98733.19;;;1.51;95.46
75697;BME280;64312;44.738;20.612;2022-12-11T06:27:59;98741.50;;;1.48;95.12
75697;BME280;64312;44.738;20.612;2022-12-11T06:30:24;98739.50;;;1.50;95.12
75697;BME280;64312;44.738;20.612;2022-12-11T06:32:50;98743.16;;;1.49;94.93
75697;BME280;64312;44.738;20.612;2022-12-11T06:35:16;98760.41;;;1.45;95.10
75697;BME280;64312;44.738;20.612;2022-12-11T06:37:42;98741.53;;;1.40;95.06
75697;BME280;64312;44.738;20.612;2022-12-11T06:40:09;98741.19;;;1.43;95.56
75697;BME280;64312;44.738;20.612;2022-12-11T06:42:36;98751.81;;;1.43;95.17
75697;BME280;64312;44.738;20.612;2022-12-11T06:45:02;98766.88;;;1.43;95.34
75697;BME280;64312;44.738;20.612;2022-12-11T06:47:28;98766.72;;;1.44;95.34
75697;BME280;64312;44.738;20.612;2022-12-11T06:49:55;98764.88;;;1.45;95.41
75697;BME280;64312;44.738;20.612;2022-12-11T06:52:21;98776.81;;;1.41;94.95
75697;BME280;64312;44.738;20.612;2022-12-11T06:54:47;98778.00;;;1.38;94.48
75697;BME280;64312;44.738;20.612;2022-12-11T06:57:13;98772.53;;;1.40;95.29
75697;BME280;64312;44.738;20.612;2022-12-11T06:59:39;98783.94;;;1.40;95.56
75697;BME280;64312;44.738;20.612;2022-12-11T07:02:05;98803.34;;;1.41;94.94
75697;BME280;64312;44.738;20.612;2022-12-11T07:04:31;98795.75;;;1.38;95.19
75697;BME280;64312;44.738;20.612;2022-12-11T07:06:57;98811.81;;;1.36;95.34
75697;BME280;64312;44.738;20.612;2022-12-11T07:09:23;98795.09;;;1.35;95.16
75697;BME280;64312;44.738;20.612;2022-12-11T07:11:50;98804.84;;;1.35;95.02
75697;BME280;64312;44.738;20.612;2022-12-11T07:14:16;98811.13;;;1.34;94.82
75697;BME280;64312;44.738;20.612;2022-12-11T07:16:41;98823.25;;;1.37;95.48
75697;BME280;64312;44.738;20.612;2022-12-11T07:19:07;98883.41;;;1.36;95.22
75697;BME280;64312;44.738;20.612;2022-12-11T07:21:33;98830.06;;;1.31;94.50
75697;BME280;64312;44.738;20.612;2022-12-11T07:23:59;98836.34;;;1.30;94.88
75697;BME280;64312;44.738;20.612;2022-12-11T07:26:25;98856.22;;;1.34;95.00
75697;BME280;64312;44.738;20.612;2022-12-11T07:28:51;98857.72;;;1.37;94.72
75697;BME280;64312;44.738;20.612;2022-12-11T07:31:20;98871.28;;;1.33;94.85
75697;BME280;64312;44.738;20.612;2022-12-11T07:33:46;98856.72;;;1.38;94.81
75697;BME280;64312;44.738;20.612;2022-12-11T07:36:13;98877.56;;;1.41;95.30
75697;BME280;64312;44.738;20.612;2022-12-11T07:38:39;98879.41;;;1.40;94.89
75697;BME280;64312;44.738;20.612;2022-12-11T07:41:07;98908.72;;;1.47;94.86
75697;BME280;64312;44.738;20.612;2022-12-11T07:43:34;98884.72;;;1.48;95.64
75697;BME280;64312;44.738;20.612;2022-12-11T07:46:06;98896.28;;;1.47;95.04
75697;BME280;64312;44.738;20.612;2022-12-11T07:48:36;98884.34;;;1.51;95.16
75697;BME280;64312;44.738;20.612;2022-12-11T07:53:46;98901.75;;;1.54;94.59
75697;BME280;64312;44.738;20.612;2022-12-11T07:56:13;98944.19;;;1.54;94.74
75697;BME280;64312;44.738;20.612;2022-12-11T07:58:38;98921.81;;;1.56;94.76
75697;BME280;64312;44.738;20.612;2022-12-11T08:01:09;98902.25;;;1.57;94.73
75697;BME280;64312;44.738;20.612;2022-12-11T08:03:35;98909.84;;;1.60;95.01
75697;BME280;64312;44.738;20.612;2022-12-11T08:06:00;98932.91;;;1.60;94.19
75697;BME280;64312;44.738;20.612;2022-12-11T08:08:26;98947.66;;;1.54;94.11
75697;BME280;64312;44.738;20.612;2022-12-11T08:10:52;98965.91;;;1.57;94.18
75697;BME280;64312;44.738;20.612;2022-12-11T08:13:17;98951.31;;;1.53;94.09
75697;BME280;64312;44.738;20.612;2022-12-11T08:15:43;98950.00;;;1.57;95.01
75697;BME280;64312;44.738;20.612;2022-12-11T08:18:09;98955.75;;;1.61;94.56
75697;BME280;64312;44.738;20.612;2022-12-11T08:20:37;98963.59;;;1.62;94.46
75697;BME280;64312;44.738;20.612;2022-12-11T08:23:03;98955.28;;;1.57;94.46
75697;BME280;64312;44.738;20.612;2022-12-11T08:25:29;98988.25;;;1.71;94.76
75697;BME280;64312;44.738;20.612;2022-12-11T08:27:55;98982.97;;;1.71;94.47
75697;BME280;64312;44.738;20.612;2022-12-11T08:30:20;98994.88;;;1.67;93.65
75697;BME280;64312;44.738;20.612;2022-12-11T08:32:46;99000.72;;;1.62;93.43
75697;BME280;64312;44.738;20.612;2022-12-11T08:35:11;98999.22;;;1.60;94.15
75697;BME280;64312;44.738;20.612;2022-12-11T08:37:37;98997.03;;;1.72;94.78
75697;BME280;64312;44.738;20.612;2022-12-11T08:40:03;98990.91;;;1.79;94.28
75697;BME280;64312;44.738;20.612;2022-12-11T08:42:29;99000.22;;;1.75;93.69
75697;BME280;64312;44.738;20.612;2022-12-11T08:44:55;98985.28;;;1.74;94.25
75697;BME280;64312;44.738;20.612;2022-12-11T08:47:21;98986.59;;;1.78;94.11
75697;BME280;64312;44.738;20.612;2022-12-11T08:49:47;98991.41;;;1.75;94.19
75697;BME280;64312;44.738;20.612;2022-12-11T08:52:12;99005.00;;;1.80;94.66
75697;BME280;64312;44.738;20.612;2022-12-11T08:54:38;98997.31;;;2.09;94.97
75697;BME280;64312;44.738;20.612;2022-12-11T08:57:04;99011.38;;;2.18;94.30
75697;BME280;64312;44.738;20.612;2022-12-11T08:59:30;99009.72;;;2.17;93.92
75697;BME280;64312;44.738;20.612;2022-12-11T09:01:56;99009.41;;;2.12;94.32
75697;BME280;64312;44.738;20.612;2022-12-11T09:04:22;98997.97;;;2.11;94.60
75697;BME280;64312;44.738;20.612;2022-12-11T09:06:48;99004.63;;;2.07;94.57
75697;BME280;64312;44.738;20.612;2022-12-11T09:09:14;99009.25;;;2.05;94.50
75697;BME280;64312;44.738;20.612;2022-12-11T09:11:40;99017.41;;;2.04;93.91
75697;BME280;64312;44.738;20.612;2022-12-11T09:14:06;99009.59;;;2.10;94.97
75697;BME280;64312;44.738;20.612;2022-12-11T09:16:32;99029.53;;;2.06;94.05
75697;BME280;64312;44.738;20.612;2022-12-11T09:18:58;98996.66;;;2.07;94.53
75697;BME280;64312;44.738;20.612;2022-12-11T09:21:27;98998.50;;;2.07;95.11
75697;BME280;64312;44.738;20.612;2022-12-11T09:23:58;99009.94;;;2.07;94.56
75697;BME280;64312;44.738;20.612;2022-12-11T09:26:26;98991.03;;;2.02;94.59
75697;BME280;64312;44.738;20.612;2022-12-11T09:28:52;98980.72;;;1.99;94.76
75697;BME280;64312;44.738;20.612;2022-12-11T09:31:24;98962.84;;;1.93;94.49
75697;BME280;64312;44.738;20.612;2022-12-11T09:33:52;98980.72;;;1.99;94.82
75697;BME280;64312;44.738;20.612;2022-12-11T09:36:18;98980.72;;;1.99;94.81
75697;BME280;64312;44.738;20.612;2022-12-11T09:38:44;98964.16;;;1.97;94.57
75697;BME280;64312;44.738;20.612;2022-12-11T09:43:51;98964.53;;;1.94;94.58
75697;BME280;64312;44.738;20.612;2022-12-11T09:46:23;98961.19;;;1.92;93.95
75697;BME280;64312;44.738;20.612;2022-12-11T09:48:49;98949.09;;;1.89;94.24
75697;BME280;64312;44.738;20.612;2022-12-11T09:54:02;98986.72;;;1.93;94.41
75697;BME280;64312;44.738;20.612;2022-12-11T09:56:35;99009.78;;;1.93;93.99
75697;BME280;64312;44.738;20.612;2022-12-11T09:59:31;99003.50;;;1.94;94.99
75697;BME280;64312;44.738;20.612;2022-12-11T10:01:59;99009.94;;;1.99;94.64
75697;BME280;64312;44.738;20.612;2022-12-11T10:04:36;99019.72;;;1.99;94.05
75697;BME280;64312;44.738;20.612;2022-12-11T10:07:15;98999.84;;;1.95;94.15
75697;BME280;64312;44.738;20.612;2022-12-11T10:12:24;98994.84;;;1.92;93.60
75697;BME280;64312;44.738;20.612;2022-12-11T10:17:38;98991.88;;;1.86;94.37
75697;BME280;64312;44.738;20.612;2022-12-11T10:20:16;98997.19;;;1.95;94.47
75697;BME280;64312;44.738;20.612;2022-12-11T10:22:44;98997.66;;;1.98;94.32
75697;BME280;64312;44.738;20.612;2022-12-11T10:25:53;99001.66;;;2.02;94.31
75697;BME280;64312;44.738;20.612;2022-12-11T10:28:13;98994.34;;;2.04;94.30
75697;BME280;64312;44.738;20.612;2022-12-11T10:30:47;98998.16;;;2.02;93.50
75697;BME280;64312;44.738;20.612;2022-12-11T10:35:52;98991.84;;;2.03;93.80
75697;BME280;64312;44.738;20.612;2022-12-11T10:38:23;98990.69;;;2.05;93.44
75697;BME280;64312;44.738;20.612;2022-12-11T10:40:54;98985.22;;;2.07;92.93
75697;BME280;64312;44.738;20.612;2022-12-11T10:43:19;98981.56;;;2.08;93.19
75697;BME280;64312;44.738;20.612;2022-12-11T10:45:50;98964.94;;;2.14;93.84
75697;BME280;64312;44.738;20.612;2022-12-11T10:48:19;98951.13;;;2.18;94.17
75697;BME280;64312;44.738;20.612;2022-12-11T10:50:55;98949.47;;;2.26;93.42
75697;BME280;64312;44.738;20.612;2022-12-11T10:53:21;98963.41;;;2.28;93.18
75697;BME280;64312;44.738;20.612;2022-12-11T10:55:48;98951.28;;;2.25;93.26
75697;BME280;64312;44.738;20.612;2022-12-11T10:58:19;98943.16;;;2.27;93.13
75697;BME280;64312;44.738;20.612;2022-12-11T11:00:45;98943.44;;;2.32;92.89
75697;BME280;64312;44.738;20.612;2022-12-11T11:03:25;98927.00;;;2.36;92.93
75697;BME280;64312;44.738;20.612;2022-12-11T11:06:14;98948.88;;;2.47;92.96
75697;BME280;64312;44.738;20.612;2022-12-11T11:08:44;98950.72;;;2.46;92.56
75697;BME280;64312;44.738;20.612;2022-12-11T11:11:23;98961.34;;;2.46;92.83
75697;BME280;64312;44.738;20.612;2022-12-11T11:13:49;98960.66;;;2.44;92.14
75697;BME280;64312;44.738;20.612;2022-12-11T11:16:19;98966.28;;;2.49;93.03
75697;BME280;64312;44.738;20.612;2022-12-11T11:18:53;98968.25;;;2.55;93.37
75697;BME280;64312;44.738;20.612;2022-12-11T11:21:22;98974.06;;;2.59;93.74
75697;BME280;64312;44.738;20.612;2022-12-11T11:23:49;98964.72;;;2.63;93.66
75697;BME280;64312;44.738;20.612;2022-12-11T11:26:16;98967.56;;;2.61;92.81
75697;BME280;64312;44.738;20.612;2022-12-11T11:28:53;98961.25;;;2.62;93.26
75697;BME280;64312;44.738;20.612;2022-12-11T11:31:28;98961.59;;;2.59;93.07
75697;BME280;64312;44.738;20.612;2022-12-11T11:34:00;98962.25;;;2.61;92.84
75697;BME280;64312;44.738;20.612;2022-12-11T11:36:32;98956.09;;;2.61;93.37
75697;BME280;64312;44.738;20.612;2022-12-11T11:44:20;98957.81;;;2.54;92.82
75697;BME280;64312;44.738;20.612;2022-12-11T11:46:57;98951.84;;;2.52;92.19
75697;BME280;64312;44.738;20.612;2022-12-11T11:49:46;98957.31;;;2.50;92.80
75697;BME280;64312;44.738;20.612;2022-12-11T11:52:48;98957.63;;;2.55;93.08
75697;BME280;64312;44.738;20.612;2022-12-11T11:58:18;98936.25;;;2.49;91.71
75697;BME280;64312;44.738;20.612;2022-12-11T12:00:47;98944.44;;;2.39;91.32
75697;BME280;64312;44.738;20.612;2022-12-11T12:03:18;98948.94;;;2.38;92.07
75697;BME280;64312;44.738;20.612;2022-12-11T12:05:53;98965.31;;;2.42;92.80
75697;BME280;64312;44.738;20.612;2022-12-11T12:13:43;98964.00;;;2.38;91.42
75697;BME280;64312;44.738;20.612;2022-12-11T12:16:25;98959.38;;;2.32;90.86
75697;BME280;64312;44.738;20.612;2022-12-11T12:21:35;98968.22;;;2.32;91.86
75697;BME280;64312;44.738;20.612;2022-12-11T12:26:50;98969.31;;;2.38;92.44
75697;BME280;64312;44.738;20.612;2022-12-11T12:30:03;98973.31;;;2.42;91.75
75697;BME280;64312;44.738;20.612;2022-12-11T12:44:12;98972.28;;;2.43;91.00
75697;BME280;64312;44.738;20.612;2022-12-11T12:47:04;98977.44;;;2.44;90.75
75697;BME280;64312;44.738;20.612;2022-12-11T12:49:46;98993.22;;;2.46;90.33
75697;BME280;64312;44.738;20.612;2022-12-11T12:52:20;99000.34;;;2.46;91.09
75697;BME280;64312;44.738;20.612;2022-12-11T12:54:50;98996.03;;;2.44;90.60
75697;BME280;64312;44.738;20.612;2022-12-11T12:57:36;99009.97;;;2.47;90.39
75697;BME280;64312;44.738;20.612;2022-12-11T13:00:04;99006.63;;;2.44;90.11
75697;BME280;64312;44.738;20.612;2022-12-11T13:02:31;99012.44;;;2.48;90.00
75697;BME280;64312;44.738;20.612;2022-12-11T13:05:21;99015.28;;;2.47;89.69
75697;BME280;64312;44.738;20.612;2022-12-11T13:07:56;99004.16;;;2.43;90.05
75697;BME280;64312;44.738;20.612;2022-12-11T13:10:30;99011.94;;;2.44;89.33
75697;BME280;64312;44.738;20.612;2022-12-11T13:12:57;99021.44;;;2.47;89.76
75697;BME280;64312;44.738;20.612;2022-12-11T13:17:53;99035.31;;;2.57;90.63
75697;BME280;64312;44.738;20.612;2022-12-11T13:20:21;99027.53;;;2.56;89.49
75697;BME280;64312;44.738;20.612;2022-12-11T13:23:07;99018.78;;;2.47;88.96
75697;BME280;64312;44.738;20.612;2022-12-11T13:34:07;99041.50;;;2.50;88.52
75697;BME280;64312;44.738;20.612;2022-12-11T13:36:39;99042.84;;;2.46;88.43
75697;BME280;64312;44.738;20.612;2022-12-11T13:39:13;99036.72;;;2.45;87.92
75697;BME280;64312;44.738;20.612;2022-12-11T13:41:45;99049.31;;;2.43;88.24
75697;BME280;64312;44.738;20.612;2022-12-11T13:44:20;99048.50;;;2.42;87.49
75697;BME280;64312;44.738;20.612;2022-12-11T13:46:49;99044.53;;;2.38;86.10
75697;BME280;64312;44.738;20.612;2022-12-11T13:49:24;99053.16;;;2.40;86.45
75697;BME280;64312;44.738;20.612;2022-12-11T13:51:54;99058.78;;;2.46;87.07
75697;BME280;64312;44.738;20.612;2022-12-11T13:54:19;99057.78;;;2.47;85.92
75697;BME280;64312;44.738;20.612;2022-12-11T13:59:37;99053.13;;;2.49;84.05
75697;BME280;64312;44.738;20.612;2022-12-11T14:02:28;99063.41;;;2.52;84.88
75697;BME280;64312;44.738;20.612;2022-12-11T14:04:58;99064.72;;;2.56;85.36
75697;BME280;64312;44.738;20.612;2022-12-11T14:07:30;99065.84;;;2.61;85.33
75697;BME280;64312;44.738;20.612;2022-12-11T14:10:04;99066.34;;;2.65;84.14
75697;BME280;64312;44.738;20.612;2022-12-11T14:12:32;99080.13;;;2.68;83.97
75697;BME280;64312;44.738;20.612;2022-12-11T14:14:59;99070.50;;;2.67;82.65
75697;BME280;64312;44.738;20.612;2022-12-11T14:17:29;99054.91;;;2.64;82.30
75697;BME280;64312;44.738;20.612;2022-12-11T14:19:57;99066.69;;;2.62;82.78
75697;BME280;64312;44.738;20.612;2022-12-11T14:22:28;99059.72;;;2.61;82.27
75697;BME280;64312;44.738;20.612;2022-12-11T14:24:59;99057.25;;;2.59;81.56
75697;BME280;64312;44.738;20.612;2022-12-11T14:27:27;99059.06;;;2.59;81.65
75697;BME280;64312;44.738;20.612;2022-12-11T14:29:54;99062.56;;;2.59;82.29
75697;BME280;64312;44.738;20.612;2022-12-11T14:32:35;99067.69;;;2.61;82.10
75697;BME280;64312;44.738;20.612;2022-12-11T14:35:22;99064.03;;;2.62;82.67